Time;durP1;ratioP1;P1;durP2;ratioP2;P2;SDS_P1;SDS_P2;PMS_P1;PMS_P2;Temp;Humidity;BMP_temperature;BMP_pressure;BME280_temperature;BME280_humidity;BME280_pressure;Samples;Min_cycle;Max_cycle;Signal;HPM_P1;HPM_P2
2022/02/26 00:02:11;;;;;;;30.60;6.80;;;;;;;1.70;96.88;100781.16;5033240;28;20037;-55
2022/02/26 00:04:37;;;;;;;31.98;6.57;;;;;;;1.63;97.41;100777.44;5037471;28;20037;-53
2022/02/26 00:07:03;;;;;;;26.95;6.35;;;;;;;1.72;97.09;100792.41;5033595;28;20087;-56
2022/02/26 00:09:28;;;;;;;27.02;7.32;;;;;;;1.67;97.01;100784.06;5033959;28;20047;-55
2022/02/26 00:11:54;;;;;;;43.03;7.85;;;;;;;1.81;96.41;100794.16;5027426;28;20038;-55
2022/02/26 00:14:19;;;;;;;35.55;7.90;;;;;;;1.81;96.66;100785.41;5025737;28;20383;-54
2022/02/26 00:16:44;;;;;;;40.45;8.35;;;;;;;1.78;96.51;100789.19;5029341;28;20411;-54
2022/02/26 00:19:10;;;;;;;38.22;7.22;;;;;;;1.67;97.26;100790.22;5032442;28;20037;-54
2022/02/26 00:21:35;;;;;;;37.83;7.18;;;;;;;1.64;97.89;100792.31;5016198;28;20044;-55
2022/02/26 00:24:01;;;;;;;28.42;6.13;;;;;;;1.63;98.28;100790.66;5033245;28;20034;-55
2022/02/26 00:26:26;;;;;;;31.75;6.95;;;;;;;1.60;98.36;100799.69;5028627;28;20045;-54
2022/02/26 00:28:51;;;;;;;30.33;7.15;;;;;;;1.55;98.02;100798.44;5028326;28;20033;-55
2022/02/26 00:31:19;;;;;;;35.58;7.22;;;;;;;1.45;98.46;100799.34;5028863;28;20044;-55
2022/02/26 00:33:45;;;;;;;29.55;7.00;;;;;;;1.47;98.83;100813.25;5027362;28;20624;-54
2022/02/26 00:36:11;;;;;;;34.10;7.45;;;;;;;1.45;98.56;100806.44;5028175;28;20476;-54
2022/02/26 00:38:36;;;;;;;28.27;6.97;;;;;;;1.44;98.88;100804.75;5028377;28;20494;-55
2022/02/26 00:41:01;;;;;;;25.27;5.88;;;;;;;1.34;99.38;100807.44;5029465;28;20049;-53
2022/02/26 00:43:27;;;;;;;22.42;6.38;;;;;;;1.29;99.17;100809.66;5033879;28;20107;-54
2022/02/26 00:45:52;;;;;;;30.42;6.45;;;;;;;1.39;99.22;100812.28;5044711;28;20095;-55
2022/02/26 00:49:46;;;;;;;30.08;7.30;;;;;;;1.25;98.78;100818.88;5032765;28;20369;-55
2022/02/26 00:51:03;;;;;;;30.38;7.13;;;;;;;1.19;98.40;100830.00;5031404;28;20037;-55
2022/02/26 00:53:28;;;;;;;22.48;6.03;;;;;;;1.19;98.59;100840.56;5026545;28;20022;-55
2022/02/26 00:55:54;;;;;;;32.15;6.55;;;;;;;1.06;98.85;100831.13;5036329;28;20837;-52
2022/02/26 00:58:19;;;;;;;24.10;6.30;;;;;;;0.99;99.63;100840.59;5037986;28;20442;-54
2022/02/26 01:00:45;;;;;;;31.83;5.90;;;;;;;0.98;99.85;100844.22;5028034;28;20061;-55
2022/02/26 01:03:10;;;;;;;33.42;6.15;;;;;;;1.08;100.00;100849.47;5030841;28;20156;-54
2022/02/26 01:05:35;;;;;;;35.88;6.65;;;;;;;1.02;100.00;100850.88;5027476;28;20048;-53
2022/02/26 01:08:01;;;;;;;31.88;7.30;;;;;;;0.92;100.00;100850.03;5030509;28;20025;-54
2022/02/26 01:10:27;;;;;;;34.40;7.78;;;;;;;0.99;100.00;100850.31;5029828;28;20044;-55
2022/02/26 01:12:52;;;;;;;31.33;7.95;;;;;;;1.02;100.00;100850.88;5031038;28;20507;-54
2022/02/26 01:15:17;;;;;;;26.50;6.80;;;;;;;1.01;99.89;100854.50;5028127;28;20034;-54
2022/02/26 01:17:43;;;;;;;44.95;7.57;;;;;;;1.02;100.00;100855.31;5027093;28;20052;-55
2022/02/26 01:20:09;;;;;;;32.05;7.35;;;;;;;0.97;99.56;100852.25;5027778;28;20029;-54
2022/02/26 01:22:34;;;;;;;32.95;7.55;;;;;;;0.93;99.94;100859.66;5033493;28;20514;-55
2022/02/26 01:24:59;;;;;;;38.63;7.85;;;;;;;0.85;100.00;100854.25;5034942;28;20088;-54
2022/02/26 01:27:25;;;;;;;36.13;7.63;;;;;;;1.05;100.00;100850.59;5027683;28;20048;-54
2022/02/26 01:29:50;;;;;;;30.85;7.68;;;;;;;0.99;100.00;100856.44;5033406;28;20071;-53
2022/02/26 01:32:16;;;;;;;47.55;8.32;;;;;;;1.04;100.00;100854.19;5026927;28;20041;-55
2022/02/26 01:34:41;;;;;;;35.45;7.55;;;;;;;1.04;99.98;100859.47;5032550;28;20451;-54
2022/02/26 01:37:06;;;;;;;46.13;8.52;;;;;;;1.19;99.36;100857.25;5039280;28;20457;-53
2022/02/26 01:39:32;;;;;;;37.75;8.52;;;;;;;1.06;99.38;100856.72;5031935;28;20566;-54
2022/02/26 01:41:57;;;;;;;28.95;7.10;;;;;;;0.96;99.53;100855.88;5031335;28;20531;-54
2022/02/26 01:44:23;;;;;;;44.25;7.88;;;;;;;0.84;99.63;100863.13;5027655;28;20088;-53
2022/02/26 01:46:48;;;;;;;36.13;8.50;;;;;;;0.76;100.00;100868.25;5029265;28;20709;-53
2022/02/26 01:49:14;;;;;;;31.67;6.88;;;;;;;0.82;100.00;100871.19;5026649;28;20033;-53
2022/02/26 01:51:39;;;;;;;31.95;8.20;;;;;;;0.73;100.00;100868.53;5033177;28;20337;-54
2022/02/26 01:54:05;;;;;;;28.48;8.25;;;;;;;0.72;100.00;100869.50;5032430;28;20029;-54
2022/02/26 01:56:31;;;;;;;38.45;8.00;;;;;;;0.87;100.00;100862.81;5034265;28;20118;-53
2022/02/26 01:58:56;;;;;;;40.83;8.63;;;;;;;0.93;100.00;100878.13;5023917;28;20035;-54
2022/02/26 02:01:22;;;;;;;40.60;9.82;;;;;;;0.80;100.00;100872.28;5029771;28;20049;-54
2022/02/26 02:03:47;;;;;;;40.15;9.77;;;;;;;0.79;100.00;100876.72;5030800;28;20029;-53
2022/02/26 02:06:13;;;;;;;41.28;9.23;;;;;;;0.82;100.00;100872.97;5030092;28;20049;-55
2022/02/26 02:08:40;;;;;;;37.95;9.48;;;;;;;0.79;100.00;100876.72;5033818;28;20033;-54
2022/02/26 02:11:06;;;;;;;35.03;7.95;;;;;;;0.76;100.00;100878.81;5029683;28;20038;-55
2022/02/26 02:13:32;;;;;;;34.40;8.60;;;;;;;0.89;100.00;100868.81;5034736;28;20037;-55
2022/02/26 02:15:58;;;;;;;40.00;9.93;;;;;;;0.91;100.00;100873.97;5038188;28;20464;-53
2022/02/26 02:18:23;;;;;;;42.10;8.95;;;;;;;0.91;100.00;100869.50;5035431;28;20031;-55
2022/02/26 02:20:49;;;;;;;41.33;9.93;;;;;;;1.00;100.00;100873.97;5036250;28;20389;-52
2022/02/26 02:23:14;;;;;;;34.42;9.30;;;;;;;0.90;100.00;100873.13;5030529;28;20029;-53
2022/02/26 02:25:40;;;;;;;34.42;8.45;;;;;;;0.88;100.00;100868.97;5018963;28;20045;-52
2022/02/26 02:28:06;;;;;;;49.85;9.18;;;;;;;0.85;100.00;100872.72;5036801;28;20480;-55
2022/02/26 02:30:31;;;;;;;39.85;9.30;;;;;;;0.87;100.00;100870.75;5037207;28;20370;-53
2022/02/26 02:32:57;;;;;;;26.80;8.63;;;;;;;0.83;100.00;100866.72;5035701;28;20522;-52
2022/02/26 02:35:43;;;;;;;36.08;8.65;;;;;;;0.83;100.00;100879.94;5037177;28;20044;-52
2022/02/26 02:38:10;;;;;;;39.17;8.73;;;;;;;0.77;100.00;100877.84;5029391;28;20108;-55
2022/02/26 02:40:36;;;;;;;33.03;8.45;;;;;;;0.80;100.00;100882.81;5033232;28;20074;-53
2022/02/26 02:43:01;;;;;;;44.65;9.68;;;;;;;0.90;100.00;100894.25;5029819;28;20079;-53
2022/02/26 02:45:27;;;;;;;40.88;8.57;;;;;;;0.92;100.00;100887.00;5039839;28;20525;-54
2022/02/26 02:47:54;;;;;;;38.67;8.93;;;;;;;0.91;100.00;100895.91;5035858;28;20045;-54
2022/02/26 02:50:19;;;;;;;32.83;8.85;;;;;;;0.90;100.00;100899.53;5030091;28;20029;-55
2022/02/26 02:52:45;;;;;;;31.58;8.05;;;;;;;0.98;100.00;100897.03;5032611;28;20041;-55
2022/02/26 02:55:12;;;;;;;43.13;8.27;;;;;;;1.03;100.00;100905.34;5035096;28;20041;-54
2022/02/26 02:57:37;;;;;;;38.42;7.82;;;;;;;0.95;100.00;100904.38;5029364;28;20052;-54
2022/02/26 03:00:05;;;;;;;41.22;7.75;;;;;;;0.93;100.00;100907.16;5028032;28;20025;-54
2022/02/26 03:02:30;;;;;;;41.05;9.45;;;;;;;0.91;100.00;100903.81;5036225;28;20027;-54
2022/02/26 03:04:56;;;;;;;42.58;8.10;;;;;;;0.91;100.00;100900.34;5034376;28;20051;-52
2022/02/26 03:07:21;;;;;;;35.08;9.43;;;;;;;0.95;100.00;100902.59;5035156;28;20487;-54
2022/02/26 03:09:47;;;;;;;29.98;8.50;;;;;;;0.90;100.00;100902.16;5035600;28;20393;-55
2022/02/26 03:12:15;;;;;;;44.60;9.18;;;;;;;0.87;100.00;100905.06;5028876;28;20053;-54
2022/02/26 03:14:40;;;;;;;38.47;9.63;;;;;;;0.79;100.00;100911.03;5034685;28;20122;-54
2022/02/26 03:17:06;;;;;;;31.75;9.95;;;;;;;0.73;100.00;100913.41;5030271;28;20488;-54
2022/02/26 03:19:31;;;;;;;53.25;9.65;;;;;;;0.69;100.00;100923.38;5032547;28;20028;-55
2022/02/26 03:21:56;;;;;;;33.53;9.18;;;;;;;0.66;100.00;100912.28;5011011;28;20050;-55
2022/02/26 03:24:22;;;;;;;35.28;10.45;;;;;;;0.65;100.00;100916.75;5040286;28;20064;-52
2022/02/26 03:26:55;;;;;;;38.88;10.40;;;;;;;0.63;100.00;100916.03;5029841;28;20447;-54
2022/02/26 03:29:22;;;;;;;38.72;10.25;;;;;;;0.60;100.00;100922.41;5029427;28;20843;-54
2022/02/26 03:31:47;;;;;;;39.97;11.65;;;;;;;0.60;100.00;100917.16;5027930;28;20114;-54
2022/02/26 03:34:13;;;;;;;46.08;11.20;;;;;;;0.60;100.00;100917.16;5026787;28;20391;-53
2022/02/26 03:36:38;;;;;;;57.97;12.30;;;;;;;0.61;100.00;100921.44;5028671;28;20048;-53
2022/02/26 03:39:04;;;;;;;41.67;12.15;;;;;;;0.66;100.00;100922.84;5028720;28;20037;-54
2022/02/26 03:41:29;;;;;;;55.72;11.80;;;;;;;0.67;100.00;100929.78;5032434;28;20073;-54
2022/02/26 03:43:55;;;;;;;45.35;12.55;;;;;;;0.61;100.00;100932.00;5035824;28;20076;-53
2022/02/26 03:46:20;;;;;;;58.03;12.93;;;;;;;0.60;100.00;100930.34;5033223;28;20426;-53
2022/02/26 03:48:46;;;;;;;54.38;14.00;;;;;;;0.55;100.00;100929.91;5035666;28;20037;-54
2022/02/26 03:51:14;;;;;;;44.65;12.75;;;;;;;0.52;100.00;100935.44;5031398;28;20037;-55
2022/02/26 03:53:39;;;;;;;44.08;12.80;;;;;;;0.51;100.00;100936.41;5028730;28;20514;-55
2022/02/26 03:56:04;;;;;;;43.33;13.25;;;;;;;0.42;100.00;100937.22;5030594;28;20025;-55
2022/02/26 03:58:30;;;;;;;43.75;13.10;;;;;;;0.39;100.00;100932.22;5029365;28;20059;-53
2022/02/26 04:00:55;;;;;;;48.35;13.15;;;;;;;0.39;100.00;100940.13;5037828;28;20040;-53
2022/02/26 04:03:21;;;;;;;49.50;11.50;;;;;;;0.35;100.00;100938.72;5031964;28;20460;-53
2022/02/26 04:05:46;;;;;;;54.60;12.27;;;;;;;0.29;100.00;100941.91;5039111;28;20045;-51
2022/02/26 04:08:11;;;;;;;41.28;12.18;;;;;;;0.32;100.00;100952.19;5027910;28;20042;-53
2022/02/26 04:10:37;;;;;;;44.45;11.32;;;;;;;0.33;100.00;100959.97;5028150;28;20489;-52
2022/02/26 04:13:03;;;;;;;50.00;12.45;;;;;;;0.31;100.00;100966.34;5033921;28;20395;-54
2022/02/26 04:15:29;;;;;;;42.88;12.18;;;;;;;0.36;100.00;100964.97;5031219;28;20072;-55
2022/02/26 04:17:54;;;;;;;49.00;12.85;;;;;;;0.41;100.00;100969.84;5033655;28;20625;-55
2022/02/26 04:20:22;;;;;;;57.67;12.40;;;;;;;0.42;100.00;100972.38;5032266;28;20045;-55
2022/02/26 04:22:48;;;;;;;46.15;12.05;;;;;;;0.39;100.00;100969.16;5034922;28;20299;-56
2022/02/26 04:25:13;;;;;;;44.17;13.10;;;;;;;0.45;100.00;100978.31;5028272;28;20021;-55
2022/02/26 04:27:39;;;;;;;39.90;12.45;;;;;;;0.40;100.00;100982.22;5028558;28;20033;-55
2022/02/26 04:30:06;;;;;;;47.47;13.55;;;;;;;0.49;100.00;100985.00;5032112;28;20075;-53
2022/02/26 04:32:31;;;;;;;45.00;13.68;;;;;;;0.38;100.00;100989.44;5031378;28;20098;-54
2022/02/26 04:34:57;;;;;;;46.67;12.82;;;;;;;0.31;100.00;100982.19;5028799;28;20037;-53
2022/02/26 04:37:22;;;;;;;62.75;14.68;;;;;;;0.36;100.00;100986.09;5027873;28;20115;-52
2022/02/26 04:39:48;;;;;;;57.08;15.43;;;;;;;0.45;100.00;100994.16;5035011;28;20033;-54
2022/02/26 04:42:13;;;;;;;66.78;17.30;;;;;;;0.52;100.00;100987.38;5015663;28;20380;-54
2022/02/26 04:44:39;;;;;;;62.80;15.32;;;;;;;0.51;100.00;101002.38;5030642;28;20569;-55
2022/02/26 04:47:05;;;;;;;76.90;17.83;;;;;;;0.46;100.00;101001.94;5029039;28;20046;-55
2022/02/26 04:49:30;;;;;;;57.75;16.58;;;;;;;0.38;100.00;100989.44;5032667;28;20053;-55
2022/02/26 04:51:55;;;;;;;65.28;17.92;;;;;;;0.52;100.00;100990.84;5031268;28;20044;-54
2022/02/26 04:54:21;;;;;;;62.92;15.73;;;;;;;0.48;100.00;100988.63;5033285;28;20038;-53
2022/02/26 04:56:46;;;;;;;54.90;16.83;;;;;;;0.46;100.00;100986.13;5032680;28;20577;-55
2022/02/26 04:59:12;;;;;;;51.65;15.98;;;;;;;0.46;100.00;100991.41;5032438;28;20037;-55
2022/02/26 05:01:37;;;;;;;64.32;18.35;;;;;;;0.48;100.00;100994.75;5027052;28;20050;-54
2022/02/26 05:04:03;;;;;;;67.05;17.13;;;;;;;0.46;100.00;100996.66;5033771;28;20029;-57
2022/02/26 05:06:28;;;;;;;54.35;17.38;;;;;;;0.39;100.00;101001.63;5026767;28;20076;-55
2022/02/26 05:08:53;;;;;;;52.80;15.45;;;;;;;0.20;100.00;101002.41;5027324;28;20728;-55
2022/02/26 05:11:19;;;;;;;67.00;16.70;;;;;;;0.07;100.00;101001.75;5033776;28;20050;-56
2022/02/26 05:13:44;;;;;;;59.35;16.02;;;;;;;0.13;100.00;101006.53;5030738;28;20029;-55
2022/02/26 05:16:10;;;;;;;51.90;15.27;;;;;;;-0.05;100.00;101003.66;5032541;28;20053;-54
2022/02/26 05:18:35;;;;;;;50.70;15.40;;;;;;;-0.24;100.00;101008.81;5033721;28;20493;-55
2022/02/26 05:21:00;;;;;;;34.20;14.55;;;;;;;-0.45;100.00;101014.06;5036379;28;20045;-55
2022/02/26 05:23:26;;;;;;;74.43;17.13;;;;;;;-0.51;100.00;101009.31;5032125;28;20048;-54
2022/02/26 05:25:51;;;;;;;57.53;15.98;;;;;;;-0.34;100.00;101003.47;5030411;28;20517;-53
2022/02/26 05:28:17;;;;;;;39.85;15.77;;;;;;;-0.30;100.00;101009.31;5027107;28;20040;-53
2022/02/26 05:30:42;;;;;;;54.78;16.10;;;;;;;-0.48;100.00;101012.50;5035349;28;20045;-52
2022/02/26 05:33:08;;;;;;;53.78;15.25;;;;;;;-0.50;100.00;101010.97;5033328;28;20041;-50
2022/02/26 05:35:33;;;;;;;50.70;17.17;;;;;;;-0.29;100.00;101011.84;5042409;28;20334;-52
2022/02/26 05:37:58;;;;;;;50.83;17.23;;;;;;;-0.37;100.00;101002.91;5035960;28;20041;-52
2022/02/26 05:40:24;;;;;;;53.15;16.95;;;;;;;-0.51;100.00;101012.78;5042325;28;20052;-54
2022/02/26 05:42:49;;;;;;;62.22;16.98;;;;;;;-0.23;100.00;101011.31;5031939;28;20446;-54
2022/02/26 05:45:15;;;;;;;66.85;17.67;;;;;;;-0.31;100.00;101011.13;5030199;28;20099;-54
2022/02/26 05:47:40;;;;;;;56.50;18.48;;;;;;;-0.46;100.00;101009.75;5037494;28;20472;-53
2022/02/26 05:50:06;;;;;;;60.85;17.65;;;;;;;-0.59;100.00;101020.47;5031024;28;20479;-53
2022/02/26 05:52:32;;;;;;;52.53;17.60;;;;;;;-0.85;100.00;101006.81;5042554;28;20032;-54
2022/02/26 05:54:57;;;;;;;60.50;18.10;;;;;;;-0.64;100.00;101008.66;5032627;28;20038;-54
2022/02/26 05:57:22;;;;;;;63.30;19.80;;;;;;;-0.64;100.00;101001.59;5042806;28;20045;-53
2022/02/26 05:59:48;;;;;;;80.45;19.08;;;;;;;-0.72;100.00;100996.97;5030598;28;20462;-53
2022/02/26 06:02:13;;;;;;;73.28;19.23;;;;;;;-0.76;100.00;101000.78;5032579;28;20088;-54
2022/02/26 06:04:39;;;;;;;58.05;18.08;;;;;;;-0.80;100.00;101006.44;5033806;28;20026;-53
2022/02/26 06:07:05;;;;;;;62.88;17.17;;;;;;;-0.89;100.00;101003.59;5035422;28;20042;-53
2022/02/26 06:09:30;;;;;;;69.25;19.70;;;;;;;-0.96;100.00;101002.41;5036385;28;20031;-55
2022/02/26 06:11:55;;;;;;;88.03;21.25;;;;;;;-0.81;100.00;101000.34;5030558;28;20033;-55
2022/02/26 06:14:21;;;;;;;81.32;21.73;;;;;;;-0.81;100.00;101004.78;5031526;28;20080;-51
2022/02/26 06:16:46;;;;;;;76.55;21.23;;;;;;;-0.90;100.00;101004.56;5035910;28;20041;-53
2022/02/26 06:19:12;;;;;;;71.05;19.88;;;;;;;-0.88;100.00;101007.88;5033458;28;20037;-52
2022/02/26 06:21:37;;;;;;;57.30;22.58;;;;;;;-1.11;100.00;101009.75;5032534;28;20094;-53
2022/02/26 06:24:03;;;;;;;55.35;19.85;;;;;;;-1.32;100.00;101016.75;5038610;28;20391;-53
2022/02/26 06:26:28;;;;;;;65.93;20.70;;;;;;;-1.41;100.00;101018.28;5036253;28;20466;-52
2022/02/26 06:28:57;;;;;;;55.28;18.67;;;;;;;-1.42;100.00;101016.63;5034867;28;20087;-53
2022/02/26 06:31:23;;;;;;;47.17;18.77;;;;;;;-1.39;100.00;101019.03;5033366;28;20075;-54
2022/02/26 06:33:48;;;;;;;64.25;16.42;;;;;;;-1.12;100.00;101029.16;5032613;28;20037;-52
2022/02/26 06:36:14;;;;;;;66.47;20.25;;;;;;;-1.13;100.00;101030.09;5028282;28;20029;-54
2022/02/26 06:38:39;;;;;;;63.80;19.73;;;;;;;-1.21;100.00;101034.31;5035567;28;20877;-53
2022/02/26 06:41:04;;;;;;;72.53;19.75;;;;;;;-1.09;100.00;101035.97;5030754;28;20564;-53
2022/02/26 06:43:30;;;;;;;74.85;20.67;;;;;;;-0.99;100.00;101033.44;5032465;28;20029;-53
2022/02/26 06:45:55;;;;;;;59.53;19.10;;;;;;;-0.84;100.00;101041.88;5035372;28;20042;-54
2022/02/26 06:48:21;;;;;;;65.97;21.30;;;;;;;-1.03;100.00;101039.88;5040455;28;20079;-54
2022/02/26 06:50:46;;;;;;;59.28;18.38;;;;;;;-1.12;100.00;101044.94;5030588;28;20096;-54
2022/02/26 06:53:11;;;;;;;47.35;17.42;;;;;;;-1.11;100.00;101043.97;5038588;28;20021;-52
2022/02/26 06:55:37;;;;;;;51.55;17.27;;;;;;;-1.50;100.00;101044.47;5040543;28;20080;-55
2022/02/26 06:58:02;;;;;;;66.60;20.63;;;;;;;-1.45;100.00;101042.31;5038204;28;20044;-53
2022/02/26 07:00:31;;;;;;;67.13;21.08;;;;;;;-1.23;100.00;101047.56;5034506;28;20048;-54
2022/02/26 07:02:56;;;;;;;60.75;17.75;;;;;;;-1.09;100.00;101052.59;5031222;28;20105;-53
2022/02/26 07:05:22;;;;;;;60.38;18.77;;;;;;;-1.11;100.00;101065.03;5034147;28;20044;-54
2022/02/26 07:07:50;;;;;;;61.53;17.85;;;;;;;-1.06;100.00;101063.81;5030501;28;20045;-52
2022/02/26 07:10:15;;;;;;;51.20;15.75;;;;;;;-0.89;100.00;101079.94;5035795;28;20052;-53
2022/02/26 07:12:41;;;;;;;40.90;13.82;;;;;;;-0.88;100.00;101086.03;5037207;28;20030;-52
2022/02/26 07:15:07;;;;;;;63.00;17.20;;;;;;;-0.70;100.00;101092.47;5033207;28;20021;-55
2022/02/26 07:17:32;;;;;;;44.33;14.15;;;;;;;-0.46;100.00;101100.16;5029110;28;20084;-53
2022/02/26 07:19:57;;;;;;;46.67;14.60;;;;;;;-0.25;100.00;101108.13;5031907;28;20041;-55
2022/02/26 07:22:23;;;;;;;52.20;17.00;;;;;;;-0.35;100.00;101103.72;5034818;28;20033;-54
2022/02/26 07:24:48;;;;;;;53.03;15.90;;;;;;;0.41;100.00;101109.69;5034079;28;20080;-52
2022/02/26 07:27:16;;;;;;;64.05;17.00;;;;;;;1.13;99.45;101119.28;5035609;28;20052;-56
2022/02/26 07:29:42;;;;;;;44.85;15.15;;;;;;;1.62;95.46;101116.72;5030194;28;20086;-53
2022/02/26 07:32:08;;;;;;;48.05;15.27;;;;;;;2.43;91.01;101111.91;5028554;28;20057;-54
2022/02/26 07:34:33;;;;;;;51.65;14.73;;;;;;;3.13;88.99;101119.44;5031413;28;20025;-56
2022/02/26 07:36:58;;;;;;;43.38;13.88;;;;;;;3.63;83.95;101126.94;5029302;28;20483;-55
2022/02/26 07:39:24;;;;;;;50.45;13.18;;;;;;;4.11;82.04;101131.03;5034134;28;20033;-53
2022/02/26 07:41:49;;;;;;;44.90;13.52;;;;;;;3.98;82.38;101131.41;5032314;28;20041;-54
2022/02/26 07:44:15;;;;;;;40.33;16.48;;;;;;;4.13;79.79;101139.66;5030068;28;20051;-55
2022/02/26 07:46:40;;;;;;;38.70;15.13;;;;;;;3.11;82.57;101132.00;5032843;28;20049;-55
2022/02/26 07:49:05;;;;;;;47.88;14.85;;;;;;;3.30;85.57;101137.22;5032513;28;20025;-55
2022/02/26 07:51:31;;;;;;;36.92;11.90;;;;;;;3.71;83.42;101136.81;5031781;28;20041;-55
2022/02/26 07:53:56;;;;;;;44.35;12.60;;;;;;;2.71;84.83;101147.22;5038617;28;20471;-54
2022/02/26 07:56:21;;;;;;;43.10;15.13;;;;;;;3.02;86.36;101150.47;5026070;28;20527;-54
2022/02/26 07:58:47;;;;;;;47.63;13.75;;;;;;;3.94;82.54;101153.91;5035733;28;20037;-54
2022/02/26 08:01:12;;;;;;;36.28;13.02;;;;;;;4.60;80.35;101162.41;5029226;28;20045;-55
2022/02/26 08:03:38;;;;;;;48.58;13.50;;;;;;;3.12;82.41;101155.72;5031538;28;20036;-54
2022/02/26 08:06:03;;;;;;;48.28;14.48;;;;;;;3.09;86.04;101155.16;5031811;28;20111;-56
2022/02/26 08:08:29;;;;;;;37.75;13.85;;;;;;;3.93;83.85;101165.53;5033053;28;20024;-57
2022/02/26 08:10:54;;;;;;;44.83;14.68;;;;;;;4.10;81.17;101164.69;5033944;28;20043;-51
2022/02/26 08:13:20;;;;;;;43.50;14.40;;;;;;;3.37;83.74;101158.63;5030330;28;20029;-54
2022/02/26 08:15:45;;;;;;;52.67;16.98;;;;;;;3.67;82.29;101155.69;5036049;28;20049;-54
2022/02/26 08:18:12;;;;;;;53.85;14.25;;;;;;;3.88;82.99;101162.50;5031626;28;20033;-52
2022/02/26 08:20:38;;;;;;;37.63;14.63;;;;;;;3.96;81.25;101175.00;5027725;28;20045;-58
2022/02/26 08:23:03;;;;;;;39.58;14.07;;;;;;;4.62;79.61;101181.66;5033370;28;20048;-54
2022/02/26 08:25:29;;;;;;;43.63;15.18;;;;;;;4.36;77.25;101177.16;5026828;28;20037;-55
2022/02/26 08:27:54;;;;;;;47.40;13.80;;;;;;;4.22;78.08;101169.75;5028384;28;20033;-53
2022/02/26 08:30:20;;;;;;;32.95;13.18;;;;;;;3.50;81.98;101175.03;5025626;28;20005;-54
2022/02/26 08:32:45;;;;;;;45.83;15.40;;;;;;;4.07;80.55;101180.94;5033210;28;20026;-54
2022/02/26 08:35:11;;;;;;;45.47;13.80;;;;;;;5.44;75.24;101182.06;5031447;28;20057;-53
2022/02/26 08:37:37;;;;;;;42.92;14.10;;;;;;;5.12;73.27;101175.66;5037858;28;20032;-54
2022/02/26 08:40:03;;;;;;;45.83;13.65;;;;;;;5.81;72.88;101184.34;5028570;28;20092;-54
2022/02/26 08:42:29;;;;;;;35.92;11.68;;;;;;;6.37;68.13;101184.59;5034779;28;20029;-54
2022/02/26 08:44:54;;;;;;;42.97;13.20;;;;;;;6.56;68.90;101186.91;5038146;28;20537;-54
2022/02/26 08:47:20;;;;;;;41.67;13.15;;;;;;;6.31;70.21;101191.41;5033000;28;20040;-53
2022/02/26 08:49:46;;;;;;;40.95;12.40;;;;;;;6.36;68.00;101188.25;5033110;28;20036;-52
2022/02/26 08:52:11;;;;;;;43.63;13.73;;;;;;;6.68;66.06;101198.88;5035219;28;20042;-56
2022/02/26 08:54:37;;;;;;;44.58;15.82;;;;;;;3.53;78.79;101195.94;5033889;28;20635;-56
2022/02/26 08:57:03;;;;;;;47.25;16.50;;;;;;;4.85;77.42;101209.38;5027907;28;20416;-55
2022/02/26 08:59:29;;;;;;;46.60;14.50;;;;;;;5.35;73.61;101211.31;5028740;28;20034;-55
2022/02/26 09:01:54;;;;;;;42.53;15.13;;;;;;;6.62;70.59;101207.56;5026346;28;20037;-55
2022/02/26 09:04:20;;;;;;;46.30;16.33;;;;;;;6.94;69.93;101213.00;5034799;28;20395;-55
2022/02/26 09:06:46;;;;;;;42.95;14.15;;;;;;;5.73;72.82;101209.09;5032143;28;20487;-56
2022/02/26 09:09:11;;;;;;;42.05;14.15;;;;;;;6.77;71.02;101206.88;5032024;28;20084;-55
2022/02/26 09:11:37;;;;;;;45.22;13.55;;;;;;;7.21;68.75;101206.41;5039689;28;20041;-54
2022/02/26 09:14:04;;;;;;;38.88;13.20;;;;;;;7.78;64.21;101203.47;5032867;28;20057;-52
2022/02/26 09:16:29;;;;;;;36.22;13.27;;;;;;;7.40;65.32;101205.19;5042186;28;20124;-57
2022/02/26 09:18:55;;;;;;;43.30;16.40;;;;;;;6.59;72.32;101215.03;5041651;28;20805;-56
2022/02/26 09:21:20;;;;;;;37.30;13.90;;;;;;;6.25;71.41;101211.56;5036233;28;20084;-55
2022/02/26 09:23:46;;;;;;;38.88;16.17;;;;;;;5.90;77.04;101206.50;5037991;28;20056;-54
2022/02/26 09:26:12;;;;;;;44.00;16.52;;;;;;;5.30;78.17;101213.63;5034512;28;20329;-54
2022/02/26 09:28:39;;;;;;;41.30;15.70;;;;;;;5.55;76.93;101211.06;5032657;28;20094;-55
2022/02/26 09:31:05;;;;;;;44.72;15.57;;;;;;;7.47;71.55;101206.16;5037557;28;20041;-54
2022/02/26 09:33:30;;;;;;;56.88;14.27;;;;;;;6.52;68.72;101208.75;5031583;28;20495;-54
2022/02/26 09:35:57;;;;;;;43.25;14.35;;;;;;;6.79;68.58;101211.03;5037910;28;20041;-54
2022/02/26 09:38:23;;;;;;;41.33;13.00;;;;;;;6.79;67.07;101210.19;5037621;28;20033;-55
2022/02/26 09:40:48;;;;;;;43.28;15.07;;;;;;;7.62;63.06;101211.59;5034895;28;20053;-54
2022/02/26 09:43:14;;;;;;;40.50;14.90;;;;;;;7.01;65.08;101209.47;5031174;28;20041;-54
2022/02/26 09:45:39;;;;;;;44.67;15.13;;;;;;;6.67;68.10;101213.22;5028921;28;20072;-54
2022/02/26 09:48:05;;;;;;;50.92;14.60;;;;;;;7.94;64.58;101213.25;5031597;28;20029;-54
2022/02/26 09:50:31;;;;;;;43.35;12.25;;;;;;;9.18;61.81;101217.34;5031950;28;20057;-57
2022/02/26 09:52:56;;;;;;;66.90;21.08;;;;;;;9.05;58.54;101212.63;5032478;28;20017;-55
2022/02/26 09:55:22;;;;;;;40.25;13.60;;;;;;;9.02;59.45;101214.88;5018501;28;20492;-54
2022/02/26 09:57:47;;;;;;;43.95;13.10;;;;;;;8.91;58.17;101212.63;5041568;28;20041;-58
2022/02/26 10:00:13;;;;;;;40.33;11.25;;;;;;;8.42;59.92;101214.75;5034820;28;20033;-55
2022/02/26 10:02:39;;;;;;;40.20;12.55;;;;;;;8.22;62.55;101216.22;5042241;28;20025;-54
2022/02/26 10:05:07;;;;;;;43.08;15.05;;;;;;;6.82;62.88;101209.88;5032121;28;20022;-54
2022/02/26 10:07:33;;;;;;;53.15;16.77;;;;;;;6.67;64.50;101215.06;5030443;28;20482;-55
2022/02/26 10:09:59;;;;;;;60.80;24.35;;;;;;;7.54;65.69;101210.63;5031810;28;20029;-55
2022/02/26 10:12:29;;;;;;;49.10;19.92;;;;;;;8.59;61.79;101223.47;5035971;28;20038;-55
2022/02/26 10:14:56;;;;;;;54.10;21.85;;;;;;;8.77;59.40;101212.44;5038738;28;20234;-54
2022/02/26 10:17:29;;;;;;;51.15;16.17;;;;;;;9.79;60.00;101221.63;5036995;28;20430;-55
2022/02/26 10:20:05;;;;;;;42.70;14.07;;;;;;;9.09;60.13;101218.47;5030597;28;20029;-54
2022/02/26 10:22:31;;;;;;;39.08;14.00;;;;;;;9.74;59.16;101219.50;5035870;28;20041;-54
2022/02/26 10:25:03;;;;;;;46.50;14.45;;;;;;;8.55;61.38;101214.13;5030380;28;20033;-54
2022/02/26 10:27:28;;;;;;;41.35;14.07;;;;;;;8.64;58.93;101213.06;5042789;28;20103;-54
2022/02/26 10:29:53;;;;;;;46.55;17.10;;;;;;;8.97;57.07;101210.06;5034301;28;20028;-55
2022/02/26 10:32:21;;;;;;;36.72;11.85;;;;;;;8.61;55.08;101210.75;5014691;28;20140;-54
2022/02/26 10:34:46;;;;;;;38.10;11.35;;;;;;;8.99;55.58;101209.88;5029982;28;20029;-54
2022/02/26 10:37:13;;;;;;;48.05;11.57;;;;;;;8.29;57.58;101203.81;5028679;28;20048;-55
2022/02/26 10:39:39;;;;;;;36.33;12.40;;;;;;;6.13;62.05;101202.22;5029258;28;20045;-54
2022/02/26 10:42:09;;;;;;;41.97;12.65;;;;;;;5.40;66.39;101206.34;5031164;28;20034;-52
2022/02/26 10:44:35;;;;;;;40.10;11.90;;;;;;;4.92;67.72;101206.94;5038104;28;20053;-54
2022/02/26 10:47:14;;;;;;;43.45;10.90;;;;;;;5.95;62.07;101206.88;5041360;28;20045;-54
2022/02/26 10:49:43;;;;;;;38.38;11.55;;;;;;;6.21;61.78;101202.22;5031244;28;20431;-52
2022/02/26 10:52:09;;;;;;;36.35;12.75;;;;;;;6.68;62.39;101198.88;5034182;28;20514;-54
2022/02/26 10:54:35;;;;;;;41.85;11.57;;;;;;;6.91;59.77;101204.34;5035485;28;20481;-54
2022/02/26 10:57:03;;;;;;;33.28;11.73;;;;;;;7.50;60.96;101198.63;5035630;28;20136;-52
2022/02/26 10:59:41;;;;;;;46.17;11.85;;;;;;;8.06;57.89;101193.13;5042164;28;20486;-54
2022/02/26 11:02:22;;;;;;;36.72;10.23;;;;;;;7.65;56.84;101193.38;5038567;28;20047;-55
2022/02/26 11:04:47;;;;;;;42.92;10.73;;;;;;;6.86;59.72;101196.03;5036192;28;20052;-55
2022/02/26 11:07:13;;;;;;;29.10;8.55;;;;;;;6.80;55.38;101204.69;5030451;28;20033;-54
2022/02/26 11:09:41;;;;;;;33.10;7.78;;;;;;;7.38;54.74;101194.69;5038265;28;20472;-54